Huvudsida
METAR-TAF:

METAR-TAF

Flygplatser :

Colmenar Viejo, Spanien

latitud: 40-39N, longitud: 003-44W, höjd: -999 m

Aktuellt väderrapport

Denna rapport gjordes för 4 timmar och 32 minuter sedan, klockan 18:00 UTC
Vind 4 kt från ost
Temperatur 12°C
Fuktighet 32%
Tryck 1025 hPa
Sikt 10 km eller mer
Inga moln under 1 500 m eller inga cumulonimbus

METAR: LECV 201800Z 09004KT CAVOK 12/M04 Q1025

Tid: 23:32 (22:32 UTC)

Väderprognos

Denna rapport gjordes för 5 timmar och 32 minuter sedan, klockan 17:00 UTC
Prognos gäller från 20 kl. 18 UTC till 21 kl. 03 UTC
Vind 5 kt varierande vindriktning
Sikt 10 km eller mer
Inga moln under 1 500 m eller inga cumulonimbus

TAF: LECV 201700Z 2018/2103 VRB05KT CAVOK

Aktuella väderrapporter och prognoser från 4000 flygplatser (METAR- och TAF-rapporter).

De tillgängliga stationerna syns som gula och röda prickar på kartan.

För musen över prickarna för att se namnen på stationerna.

Klicka sedan för att få väderrapporter och prognoser.

För att ändra kartan: Klicka på de gröna knapparna med ett svart kors på för att zooma in; den gröna knappen med ett streck på för att zooma ut; eller på de gröna pilarna för angränsande kartor.


METAR-TAF: